Time;durP1;ratioP1;P1;durP2;ratioP2;P2;SDS_P1;SDS_P2;PMS_P1;PMS_P2;Temp;Humidity;BMP_temperature;BMP_pressure;BME280_temperature;BME280_humidity;BME280_pressure;Samples;Min_cycle;Max_cycle;Signal;HPM_P1;HPM_P2
2023/10/28 00:00:04;;;;;;;;;;;14.10;74.20;;;;;;5094699;28;19934;-71
2023/10/28 00:02:30;;;;;;;;;;;14.10;74.20;;;;;;5112699;28;20031;-71
2023/10/28 00:04:55;;;;;;;;;;;14.10;74.20;;;;;;5094392;28;19965;-72
2023/10/28 00:07:24;;;;;;;;;;;14.10;74.20;;;;;;5094516;28;20019;-71
2023/10/28 00:09:49;;;;;;;;;;;14.10;74.20;;;;;;5094369;28;19919;-71
2023/10/28 00:12:15;;;;;;;;;;;14.10;74.20;;;;;;5112590;28;19930;-71
2023/10/28 00:14:41;;;;;;;;;;;14.10;74.20;;;;;;5094755;28;20349;-72
2023/10/28 00:17:06;;;;;;;;;;;14.20;74.30;;;;;;5094126;28;20006;-73
2023/10/28 00:19:32;;;;;;;;;;;14.10;74.20;;;;;;5128669;28;19974;-71
2023/10/28 00:21:57;;;;;;;;;;;14.10;74.20;;;;;;5112372;28;19920;-71
2023/10/28 00:24:23;;;;;;;;;;;14.10;74.30;;;;;;5094538;28;20390;-71
2023/10/28 00:26:48;;;;;;;;;;;14.10;74.20;;;;;;5112392;28;19927;-71
2023/10/28 00:29:14;;;;;;;;;;;14.10;74.20;;;;;;5094091;28;19949;-71
2023/10/28 00:31:40;;;;;;;;;;;14.10;74.20;;;;;;5094531;28;19977;-73
2023/10/28 00:34:06;;;;;;;;;;;14.10;74.20;;;;;;5128285;28;19920;-71
2023/10/28 00:36:31;;;;;;;;;;;14.10;74.20;;;;;;5112295;28;19927;-71
2023/10/28 00:38:57;;;;;;;;;;;14.10;74.20;;;;;;5094696;28;20151;-71
2023/10/28 00:41:22;;;;;;;;;;;14.10;74.30;;;;;;5094223;28;20390;-71
2023/10/28 00:43:48;;;;;;;;;;;14.10;74.30;;;;;;5112343;28;19924;-71
2023/10/28 00:46:14;;;;;;;;;;;14.10;74.30;;;;;;5112245;28;19951;-71
2023/10/28 00:48:40;;;;;;;;;;;14.10;74.30;;;;;;5090406;28;19931;-72
2023/10/28 00:51:06;;;;;;;;;;;14.10;74.20;;;;;;5090652;28;19920;-71
2023/10/28 00:53:31;;;;;;;;;;;14.10;74.20;;;;;;5090490;28;19926;-71
2023/10/28 00:55:59;;;;;;;;;;;14.10;74.30;;;;;;5093096;28;19924;-71
2023/10/28 00:58:24;;;;;;;;;;;14.10;74.30;;;;;;5094260;28;19963;-72
2023/10/28 01:00:50;;;;;;;;;;;14.10;74.30;;;;;;5094552;28;20024;-71
2023/10/28 01:03:16;;;;;;;;;;;14.10;74.30;;;;;;5094389;28;20367;-72
2023/10/28 01:05:41;;;;;;;;;;;14.10;74.30;;;;;;5094374;28;20502;-72
2023/10/28 01:08:09;;;;;;;;;;;14.10;74.30;;;;;;5095137;28;19924;-71
2023/10/28 01:10:35;;;;;;;;;;;14.10;74.30;;;;;;5095298;28;19943;-72
2023/10/28 01:13:01;;;;;;;;;;;14.10;74.30;;;;;;5093907;28;19926;-71
2023/10/28 01:15:26;;;;;;;;;;;14.10;74.30;;;;;;5094161;28;19973;-71
2023/10/28 01:17:52;;;;;;;;;;;14.00;74.20;;;;;;5095071;28;20425;-71
2023/10/28 01:20:18;;;;;;;;;;;14.10;74.30;;;;;;5093820;28;20065;-73
2023/10/28 01:22:43;;;;;;;;;;;14.10;74.30;;;;;;5093739;28;19935;-72
2023/10/28 01:25:09;;;;;;;;;;;14.00;74.20;;;;;;5093701;28;19920;-72
2023/10/28 01:27:35;;;;;;;;;;;14.10;74.30;;;;;;5093694;28;20026;-72
2023/10/28 01:30:01;;;;;;;;;;;14.00;74.20;;;;;;5093836;28;19927;-72
2023/10/28 01:32:27;;;;;;;;;;;14.10;74.30;;;;;;5093616;28;19920;-73
2023/10/28 01:34:53;;;;;;;;;;;14.00;74.20;;;;;;5093781;28;19920;-72
2023/10/28 01:37:19;;;;;;;;;;;14.10;74.30;;;;;;5093769;28;20375;-71
2023/10/28 01:39:50;;;;;;;;;;;14.00;74.20;;;;;;5093618;28;20614;-71
2023/10/28 01:42:16;;;;;;;;;;;14.00;74.20;;;;;;5093634;28;19924;-71
2023/10/28 01:44:41;;;;;;;;;;;14.00;74.20;;;;;;5093580;28;19920;-72
2023/10/28 01:47:08;;;;;;;;;;;14.00;74.20;;;;;;5100162;28;19931;-71
2023/10/28 01:49:34;;;;;;;;;;;14.00;74.20;;;;;;5096537;28;19924;-72
2023/10/28 01:52:00;;;;;;;;;;;14.10;74.30;;;;;;5096517;28;19952;-71
2023/10/28 01:54:25;;;;;;;;;;;14.10;74.30;;;;;;5114571;28;19924;-71
2023/10/28 01:56:51;;;;;;;;;;;14.00;74.20;;;;;;5096568;28;19970;-72
2023/10/28 01:59:16;;;;;;;;;;;14.00;74.20;;;;;;5096801;28;19928;-72
2023/10/28 02:01:43;;;;;;;;;;;14.00;74.20;;;;;;5096452;28;19966;-72
2023/10/28 02:04:08;;;;;;;;;;;14.00;74.20;;;;;;5096505;28;20291;-72
2023/10/28 02:06:33;;;;;;;;;;;14.00;74.20;;;;;;5096231;28;19939;-71
2023/10/28 02:08:59;;;;;;;;;;;14.00;74.30;;;;;;5096100;28;19919;-71
2023/10/28 02:11:25;;;;;;;;;;;14.00;74.20;;;;;;5114385;28;20413;-71
2023/10/28 02:13:50;;;;;;;;;;;14.00;74.20;;;;;;5114601;28;19920;-71
2023/10/28 02:16:16;;;;;;;;;;;14.00;74.30;;;;;;5114421;28;20304;-71
2023/10/28 02:18:41;;;;;;;;;;;14.00;74.20;;;;;;5096109;28;19969;-72
2023/10/28 02:21:07;;;;;;;;;;;14.00;74.20;;;;;;5130053;27;19920;-72
2023/10/28 02:23:32;;;;;;;;;;;14.00;74.20;;;;;;5114206;28;19927;-72
2023/10/28 02:25:58;;;;;;;;;;;14.00;74.30;;;;;;5114037;28;20382;-72
2023/10/28 02:28:23;;;;;;;;;;;14.00;74.20;;;;;;5129963;27;19972;-72
2023/10/28 02:30:49;;;;;;;;;;;14.00;74.20;;;;;;5095633;28;19931;-72
2023/10/28 02:33:14;;;;;;;;;;;14.00;74.20;;;;;;5096050;28;19931;-72
2023/10/28 02:35:40;;;;;;;;;;;14.00;74.20;;;;;;5095960;28;19926;-72
2023/10/28 02:38:05;;;;;;;;;;;14.00;74.30;;;;;;5113999;28;19920;-72
2023/10/28 02:40:31;;;;;;;;;;;14.00;74.20;;;;;;5113657;28;19927;-72
2023/10/28 02:42:57;;;;;;;;;;;14.00;74.20;;;;;;5129646;27;19927;-72
2023/10/28 02:45:22;;;;;;;;;;;14.00;74.20;;;;;;5129630;27;19919;-71
2023/10/28 02:47:49;;;;;;;;;;;14.00;74.20;;;;;;5126091;27;19924;-71
2023/10/28 02:50:15;;;;;;;;;;;13.90;74.10;;;;;;5091996;28;19939;-72
2023/10/28 02:52:40;;;;;;;;;;;14.00;74.20;;;;;;5092182;28;19920;-72
2023/10/28 02:55:06;;;;;;;;;;;14.00;74.20;;;;;;5126075;27;19920;-71
2023/10/28 02:57:32;;;;;;;;;;;14.00;74.20;;;;;;5092200;28;20348;-72
2023/10/28 02:59:58;;;;;;;;;;;14.00;74.20;;;;;;5091900;28;19920;-71
2023/10/28 03:02:23;;;;;;;;;;;14.00;74.20;;;;;;5091854;28;19920;-73
2023/10/28 03:04:49;;;;;;;;;;;14.00;74.20;;;;;;5093185;28;20298;-72
2023/10/28 03:07:15;;;;;;;;;;;13.90;74.10;;;;;;5091677;28;20018;-71
2023/10/28 03:09:40;;;;;;;;;;;14.00;74.20;;;;;;5125835;27;19927;-72
2023/10/28 03:12:06;;;;;;;;;;;14.00;74.20;;;;;;5091872;28;19963;-72
2023/10/28 03:14:31;;;;;;;;;;;14.00;74.20;;;;;;5091741;28;19950;-71
2023/10/28 03:16:57;;;;;;;;;;;14.00;74.20;;;;;;5091639;28;20280;-72
2023/10/28 03:19:22;;;;;;;;;;;14.00;74.20;;;;;;5091571;28;20007;-72
2023/10/28 03:21:48;;;;;;;;;;;13.90;74.10;;;;;;5091528;28;19920;-72
2023/10/28 03:24:13;;;;;;;;;;;14.00;74.20;;;;;;5091559;28;19924;-72
2023/10/28 03:26:39;;;;;;;;;;;14.00;74.20;;;;;;5091644;28;20298;-71
2023/10/28 03:29:04;;;;;;;;;;;14.00;74.20;;;;;;5091357;28;19935;-72
2023/10/28 03:31:30;;;;;;;;;;;14.00;74.20;;;;;;5091687;28;19920;-72
2023/10/28 03:33:55;;;;;;;;;;;13.90;74.10;;;;;;5092927;28;19924;-72
2023/10/28 03:36:21;;;;;;;;;;;14.00;74.20;;;;;;5091352;28;19973;-72
2023/10/28 03:38:47;;;;;;;;;;;13.90;74.10;;;;;;5092951;28;19924;-71
2023/10/28 03:41:12;;;;;;;;;;;14.00;74.20;;;;;;5092523;28;19926;-71
2023/10/28 03:43:38;;;;;;;;;;;14.00;74.20;;;;;;5092443;28;19993;-72
2023/10/28 03:46:04;;;;;;;;;;;13.90;74.10;;;;;;5091605;28;19920;-72
2023/10/28 03:48:30;;;;;;;;;;;14.00;74.20;;;;;;5090933;28;19935;-72
2023/10/28 03:50:57;;;;;;;;;;;14.00;74.20;;;;;;5091509;28;19946;-72
2023/10/28 03:53:26;;;;;;;;;;;14.00;74.20;;;;;;5092350;28;19920;-71
2023/10/28 03:55:51;;;;;;;;;;;13.90;74.10;;;;;;5091458;28;19920;-71
2023/10/28 03:58:17;;;;;;;;;;;14.00;74.20;;;;;;5091275;28;20427;-72
2023/10/28 04:00:43;;;;;;;;;;;14.00;74.20;;;;;;5092599;28;20291;-71
2023/10/28 04:03:08;;;;;;;;;;;14.00;74.20;;;;;;5092285;28;19920;-71
2023/10/28 04:05:34;;;;;;;;;;;13.90;74.10;;;;;;5091359;28;20011;-71
2023/10/28 04:07:59;;;;;;;;;;;13.90;74.10;;;;;;5092317;28;19932;-72
2023/10/28 04:10:27;;;;;;;;;;;13.90;74.10;;;;;;5091239;28;19973;-71
2023/10/28 04:12:53;;;;;;;;;;;13.90;74.10;;;;;;5090989;28;19920;-71
2023/10/28 04:15:18;;;;;;;;;;;13.90;74.10;;;;;;5092329;28;19927;-71
2023/10/28 04:17:44;;;;;;;;;;;14.00;74.10;;;;;;5091200;28;19920;-72
2023/10/28 04:20:10;;;;;;;;;;;14.00;74.10;;;;;;5092244;28;19967;-72
2023/10/28 04:22:36;;;;;;;;;;;14.00;74.20;;;;;;5090929;28;19977;-72
2023/10/28 04:25:03;;;;;;;;;;;13.90;74.10;;;;;;5091162;28;19919;-72
2023/10/28 04:27:29;;;;;;;;;;;14.00;74.20;;;;;;5090950;28;20307;-71
2023/10/28 04:29:54;;;;;;;;;;;14.00;74.10;;;;;;5091780;28;19924;-72
2023/10/28 04:32:22;;;;;;;;;;;13.90;74.80;;;;;;5095064;28;19919;-72
2023/10/28 04:34:48;;;;;;;;;;;14.00;74.20;;;;;;5094716;28;19927;-72
2023/10/28 04:37:14;;;;;;;;;;;13.90;74.10;;;;;;5095043;28;20401;-71
2023/10/28 04:39:40;;;;;;;;;;;13.90;74.10;;;;;;5094808;28;19974;-72
2023/10/28 04:42:07;;;;;;;;;;;14.00;74.10;;;;;;5094609;28;19920;-71
2023/10/28 04:44:33;;;;;;;;;;;13.90;74.10;;;;;;5095759;28;19970;-71
2023/10/28 04:47:01;;;;;;;;;;;14.00;74.10;;;;;;5094219;28;19932;-72
2023/10/28 04:49:27;;;;;;;;;;;14.00;74.10;;;;;;5094287;28;19925;-72
2023/10/28 04:51:54;;;;;;;;;;;13.90;74.10;;;;;;5094373;28;20020;-71
2023/10/28 04:54:19;;;;;;;;;;;14.00;74.10;;;;;;5094286;28;19924;-72
2023/10/28 04:56:45;;;;;;;;;;;14.00;74.10;;;;;;5094267;28;19985;-71
2023/10/28 04:59:10;;;;;;;;;;;14.00;74.10;;;;;;5094472;28;19920;-71
2023/10/28 05:01:36;;;;;;;;;;;13.90;74.00;;;;;;5094034;28;19965;-72
2023/10/28 05:04:02;;;;;;;;;;;14.00;74.10;;;;;;5094468;28;19963;-72
2023/10/28 05:06:27;;;;;;;;;;;13.90;74.10;;;;;;5094290;28;19920;-71
2023/10/28 05:08:53;;;;;;;;;;;13.90;74.10;;;;;;5128291;27;20368;-71
2023/10/28 05:11:19;;;;;;;;;;;14.00;74.10;;;;;;5093964;28;19924;-72
2023/10/28 05:13:44;;;;;;;;;;;14.00;74.10;;;;;;5095252;28;19974;-71
2023/10/28 05:16:10;;;;;;;;;;;13.90;74.00;;;;;;5095137;28;19964;-71
2023/10/28 05:18:35;;;;;;;;;;;14.00;74.10;;;;;;5093735;28;19920;-72
2023/10/28 05:21:01;;;;;;;;;;;14.00;74.10;;;;;;5095137;28;19920;-72
2023/10/28 05:23:26;;;;;;;;;;;14.00;74.10;;;;;;5093768;28;19963;-72
2023/10/28 05:25:53;;;;;;;;;;;14.00;74.10;;;;;;5093681;28;19986;-71
2023/10/28 05:28:19;;;;;;;;;;;13.90;74.00;;;;;;5093746;28;20329;-72
2023/10/28 05:30:45;;;;;;;;;;;13.90;74.00;;;;;;5093509;28;19939;-72
2023/10/28 05:33:11;;;;;;;;;;;14.00;74.10;;;;;;5093915;28;19928;-72
2023/10/28 05:35:37;;;;;;;;;;;14.00;74.10;;;;;;5093555;28;19924;-72
2023/10/28 05:38:03;;;;;;;;;;;13.90;74.00;;;;;;5094716;28;20011;-72
2023/10/28 05:40:28;;;;;;;;;;;13.90;74.00;;;;;;5094425;28;19946;-72
2023/10/28 05:42:54;;;;;;;;;;;13.90;74.00;;;;;;5094633;28;20207;-71
2023/10/28 05:45:20;;;;;;;;;;;13.90;74.00;;;;;;5093296;28;20414;-71
2023/10/28 05:47:46;;;;;;;;;;;14.00;74.10;;;;;;5105613;28;20018;-71
2023/10/28 05:50:12;;;;;;;;;;;14.00;74.10;;;;;;5096923;28;19965;-71
2023/10/28 05:52:38;;;;;;;;;;;14.00;74.10;;;;;;5114931;28;19924;-71
2023/10/28 05:55:04;;;;;;;;;;;14.00;74.10;;;;;;5096804;28;19942;-72
2023/10/28 05:57:30;;;;;;;;;;;14.00;74.10;;;;;;5096409;28;19926;-72
2023/10/28 05:59:55;;;;;;;;;;;14.00;74.10;;;;;;5096336;28;20009;-71
2023/10/28 06:02:21;;;;;;;;;;;13.90;74.10;;;;;;5096317;28;19920;-73
2023/10/28 06:04:46;;;;;;;;;;;14.00;74.10;;;;;;5096321;28;20018;-72
2023/10/28 06:07:12;;;;;;;;;;;14.00;74.10;;;;;;5114571;28;19923;-73
2023/10/28 06:09:37;;;;;;;;;;;13.90;74.00;;;;;;5114777;28;20492;-72
2023/10/28 06:12:03;;;;;;;;;;;14.00;74.10;;;;;;5096220;28;19919;-71
2023/10/28 06:14:28;;;;;;;;;;;13.90;74.10;;;;;;5096357;28;20359;-71
2023/10/28 06:16:54;;;;;;;;;;;14.00;74.10;;;;;;5095985;28;19920;-73
2023/10/28 06:19:21;;;;;;;;;;;14.00;74.10;;;;;;5095918;28;19919;-73
2023/10/28 06:21:47;;;;;;;;;;;14.00;74.10;;;;;;5096279;28;19927;-73
2023/10/28 06:24:13;;;;;;;;;;;14.00;74.10;;;;;;5114170;28;19920;-73
2023/10/28 06:26:39;;;;;;;;;;;13.90;74.00;;;;;;5130071;27;19920;-73
2023/10/28 06:29:05;;;;;;;;;;;14.00;74.80;;;;;;5095705;28;19972;-72
2023/10/28 06:31:31;;;;;;;;;;;14.00;74.10;;;;;;5095775;28;19920;-73
2023/10/28 06:33:59;;;;;;;;;;;14.00;74.10;;;;;;5114001;28;19924;-73
2023/10/28 06:36:25;;;;;;;;;;;13.90;74.10;;;;;;5096101;28;20367;-71
2023/10/28 06:38:50;;;;;;;;;;;13.90;74.10;;;;;;5095711;28;19927;-71
2023/10/28 06:41:16;;;;;;;;;;;13.90;74.00;;;;;;5096028;28;20006;-71
2023/10/28 06:43:41;;;;;;;;;;;13.90;74.10;;;;;;5095525;28;20434;-71
2023/10/28 06:46:07;;;;;;;;;;;13.90;74.10;;;;;;5129993;27;19924;-71
2023/10/28 06:48:33;;;;;;;;;;;13.90;74.10;;;;;;5095124;28;20333;-73
2023/10/28 06:50:59;;;;;;;;;;;13.90;74.10;;;;;;5113723;28;19919;-72
2023/10/28 06:53:25;;;;;;;;;;;13.90;74.00;;;;;;5094648;28;19931;-71
2023/10/28 06:55:51;;;;;;;;;;;13.90;74.10;;;;;;5129757;27;19919;-71
2023/10/28 06:58:16;;;;;;;;;;;14.00;74.10;;;;;;5113588;28;19920;-71
2023/10/28 07:00:42;;;;;;;;;;;13.90;74.00;;;;;;5129331;27;19955;-72
2023/10/28 07:03:07;;;;;;;;;;;13.90;74.10;;;;;;5113454;28;20362;-71
2023/10/28 07:05:34;;;;;;;;;;;13.90;74.10;;;;;;5095189;28;19935;-71
2023/10/28 07:07:59;;;;;;;;;;;13.90;74.00;;;;;;5095280;28;19967;-71
2023/10/28 07:10:25;;;;;;;;;;;13.90;74.00;;;;;;5113322;28;19978;-71
2023/10/28 07:12:51;;;;;;;;;;;13.90;74.10;;;;;;5095392;28;20355;-71
2023/10/28 07:15:18;;;;;;;;;;;14.00;74.10;;;;;;5113280;28;19920;-71
2023/10/28 07:17:43;;;;;;;;;;;14.00;74.10;;;;;;5113107;28;19919;-72
2023/10/28 07:20:09;;;;;;;;;;;14.00;74.10;;;;;;5095215;28;20363;-71
2023/10/28 07:22:34;;;;;;;;;;;13.90;74.00;;;;;;5113395;28;19939;-72
2023/10/28 07:25:00;;;;;;;;;;;14.00;74.10;;;;;;5113248;28;20418;-72
2023/10/28 07:27:26;;;;;;;;;;;14.00;74.10;;;;;;5113055;28;19924;-73
2023/10/28 07:29:51;;;;;;;;;;;13.90;74.00;;;;;;5113059;28;20351;-71
2023/10/28 07:32:17;;;;;;;;;;;13.90;74.10;;;;;;5095077;28;19920;-72
2023/10/28 07:34:42;;;;;;;;;;;14.00;74.10;;;;;;5095131;28;20341;-72
2023/10/28 07:37:08;;;;;;;;;;;14.00;74.10;;;;;;5094693;28;20349;-71
2023/10/28 07:39:34;;;;;;;;;;;13.90;74.00;;;;;;5094776;28;19924;-72
2023/10/28 07:42:00;;;;;;;;;;;14.00;74.10;;;;;;5094853;28;19920;-71
2023/10/28 07:44:25;;;;;;;;;;;14.00;74.10;;;;;;5094795;28;19931;-71
2023/10/28 07:46:51;;;;;;;;;;;14.00;74.00;;;;;;5094389;28;19923;-71
2023/10/28 07:49:16;;;;;;;;;;;13.90;74.00;;;;;;5094466;28;19974;-71
2023/10/28 07:51:42;;;;;;;;;;;14.00;74.00;;;;;;5094790;28;19938;-71
2023/10/28 07:54:08;;;;;;;;;;;13.90;74.00;;;;;;5094794;28;19927;-72
2023/10/28 07:56:34;;;;;;;;;;;13.90;74.00;;;;;;5094818;28;20390;-71
2023/10/28 07:59:01;;;;;;;;;;;14.00;74.00;;;;;;5094810;28;20015;-72
2023/10/28 08:01:27;;;;;;;;;;;14.00;74.10;;;;;;5094766;28;19954;-72
2023/10/28 08:03:53;;;;;;;;;;;14.00;74.00;;;;;;5095721;28;19920;-72
2023/10/28 08:06:19;;;;;;;;;;;13.90;74.00;;;;;;5098580;28;20440;-71
2023/10/28 08:08:45;;;;;;;;;;;14.00;74.00;;;;;;5098590;28;20314;-71
2023/10/28 08:11:13;;;;;;;;;;;14.00;74.00;;;;;;5098540;28;19926;-71
2023/10/28 08:13:39;;;;;;;;;;;14.00;74.00;;;;;;5098908;28;20026;-72
2023/10/28 08:16:04;;;;;;;;;;;13.90;73.90;;;;;;5098781;28;19962;-71
2023/10/28 08:18:31;;;;;;;;;;;14.00;74.00;;;;;;5098467;28;20409;-72
2023/10/28 08:20:57;;;;;;;;;;;14.00;74.00;;;;;;5098743;28;20161;-72
2023/10/28 08:23:22;;;;;;;;;;;14.00;74.00;;;;;;5116608;28;20192;-72
2023/10/28 08:25:49;;;;;;;;;;;14.00;74.00;;;;;;5098561;28;19942;-71
2023/10/28 08:28:15;;;;;;;;;;;14.00;74.00;;;;;;5098258;28;19958;-71
2023/10/28 08:30:41;;;;;;;;;;;14.00;73.90;;;;;;5098123;28;19920;-72
2023/10/28 08:33:06;;;;;;;;;;;14.00;73.90;;;;;;5132538;27;19927;-72
2023/10/28 08:35:36;;;;;;;;;;;14.00;73.90;;;;;;5098081;28;19920;-71
2023/10/28 08:38:05;;;;;;;;;;;14.00;74.00;;;;;;5116439;28;19927;-71
2023/10/28 08:40:31;;;;;;;;;;;14.00;73.90;;;;;;5098340;28;20309;-71
2023/10/28 08:42:58;;;;;;;;;;;14.00;73.90;;;;;;5098148;28;20233;-71
2023/10/28 08:45:25;;;;;;;;;;;14.00;73.90;;;;;;5098365;28;20332;-71
2023/10/28 08:47:51;;;;;;;;;;;14.00;73.90;;;;;;5097580;28;19931;-71
2023/10/28 08:50:17;;;;;;;;;;;14.00;73.90;;;;;;5097774;28;19924;-72
2023/10/28 08:52:45;;;;;;;;;;;14.00;73.90;;;;;;5132129;27;19920;-73
2023/10/28 08:55:11;;;;;;;;;;;14.00;73.90;;;;;;5116340;28;19919;-71
2023/10/28 08:57:40;;;;;;;;;;;14.00;73.80;;;;;;5115234;28;19927;-72
2023/10/28 09:00:14;;;;;;;;;;;14.00;73.80;;;;;;5097993;28;19924;-71
2023/10/28 09:02:44;;;;;;;;;;;14.00;73.90;;;;;;5097417;28;19966;-71
2023/10/28 09:05:11;;;;;;;;;;;14.00;73.80;;;;;;5115811;28;19926;-71
2023/10/28 09:07:36;;;;;;;;;;;14.00;73.80;;;;;;5097847;28;20280;-71
2023/10/28 09:10:04;;;;;;;;;;;14.00;73.80;;;;;;5097381;28;19941;-71
2023/10/28 09:12:31;;;;;;;;;;;14.10;73.90;;;;;;5097423;28;19920;-72
2023/10/28 09:14:56;;;;;;;;;;;14.10;73.90;;;;;;5097254;28;19919;-71
2023/10/28 09:17:22;;;;;;;;;;;14.00;73.80;;;;;;5131113;27;19920;-72
2023/10/28 09:19:50;;;;;;;;;;;14.10;73.90;;;;;;5115373;28;19966;-72
2023/10/28 09:22:16;;;;;;;;;;;14.10;73.90;;;;;;5115623;28;19923;-72
2023/10/28 09:24:46;;;;;;;;;;;14.10;73.90;;;;;;5097512;28;19920;-71
2023/10/28 09:27:12;;;;;;;;;;;14.10;73.90;;;;;;5097051;28;19920;-71
2023/10/28 09:29:38;;;;;;;;;;;14.10;73.80;;;;;;5097287;28;20367;-72
2023/10/28 09:32:05;;;;;;;;;;;14.10;73.90;;;;;;5115284;28;19926;-72
2023/10/28 09:34:34;;;;;;;;;;;14.10;73.90;;;;;;5096878;28;19920;-72
2023/10/28 09:37:00;;;;;;;;;;;14.10;73.90;;;;;;5096942;28;19927;-71
2023/10/28 09:39:26;;;;;;;;;;;14.10;73.80;;;;;;5115096;28;19920;-71
2023/10/28 09:41:52;;;;;;;;;;;14.10;73.90;;;;;;5097146;28;19919;-71
2023/10/28 09:44:19;;;;;;;;;;;14.10;73.80;;;;;;5096661;28;19919;-71
2023/10/28 09:46:46;;;;;;;;;;;14.10;73.80;;;;;;5096529;28;20009;-71
2023/10/28 09:49:16;;;;;;;;;;;14.10;73.80;;;;;;5115098;28;19924;-71
2023/10/28 09:51:42;;;;;;;;;;;14.10;73.80;;;;;;5096898;28;19920;-72
2023/10/28 09:54:18;;;;;;;;;;;14.10;73.80;;;;;;5096570;28;19920;-71
2023/10/28 09:56:44;;;;;;;;;;;14.10;73.80;;;;;;5097033;28;20428;-71
2023/10/28 09:59:15;;;;;;;;;;;14.10;73.80;;;;;;5096811;28;19919;-71
2023/10/28 10:01:48;;;;;;;;;;;14.10;73.80;;;;;;5114744;28;20340;-72
2023/10/28 10:04:32;;;;;;;;;;;14.10;73.80;;;;;;5114854;28;19965;-71
2023/10/28 10:06:58;;;;;;;;;;;14.10;73.80;;;;;;5096371;28;19919;-71
2023/10/28 10:09:24;;;;;;;;;;;14.10;73.80;;;;;;5096340;28;19924;-73
2023/10/28 10:11:49;;;;;;;;;;;14.10;73.80;;;;;;5096296;28;20298;-71
2023/10/28 10:14:16;;;;;;;;;;;14.10;73.80;;;;;;5096171;28;19932;-71
2023/10/28 10:16:46;;;;;;;;;;;14.20;73.80;;;;;;5096397;28;19919;-71
2023/10/28 10:19:16;;;;;;;;;;;14.10;73.80;;;;;;5096429;28;19920;-72
2023/10/28 10:21:57;;;;;;;;;;;14.10;73.80;;;;;;5114224;28;19973;-72
2023/10/28 10:24:22;;;;;;;;;;;14.10;73.80;;;;;;5096085;28;19920;-72
2023/10/28 10:27:03;;;;;;;;;;;14.20;73.80;;;;;;5095667;28;20264;-72
2023/10/28 10:29:39;;;;;;;;;;;14.10;73.80;;;;;;5129665;27;19924;-72
2023/10/28 10:32:14;;;;;;;;;;;14.10;73.80;;;;;;5114083;28;19923;-72
2023/10/28 10:34:40;;;;;;;;;;;14.20;73.80;;;;;;5114676;28;19919;-72
2023/10/28 10:37:06;;;;;;;;;;;14.10;73.80;;;;;;5096037;28;20394;-71
2023/10/28 10:39:47;;;;;;;;;;;14.10;73.80;;;;;;5113880;28;19919;-72
2023/10/28 10:42:13;;;;;;;;;;;14.20;73.90;;;;;;5095619;28;19973;-72
2023/10/28 10:44:40;;;;;;;;;;;14.20;73.80;;;;;;5095645;28;19920;-72
2023/10/28 10:47:08;;;;;;;;;;;14.10;73.80;;;;;;5113792;28;19923;-71
2023/10/28 10:49:34;;;;;;;;;;;14.20;73.80;;;;;;5095424;28;19930;-72
2023/10/28 10:52:01;;;;;;;;;;;14.20;73.80;;;;;;5095677;28;19943;-71
2023/10/28 10:54:28;;;;;;;;;;;14.20;73.80;;;;;;5095480;28;19945;-71
2023/10/28 10:56:53;;;;;;;;;;;14.20;73.80;;;;;;5095751;28;19923;-71
2023/10/28 10:59:19;;;;;;;;;;;14.20;73.80;;;;;;5095732;28;20385;-71
2023/10/28 11:01:46;;;;;;;;;;;14.20;73.80;;;;;;5095197;28;19924;-72
2023/10/28 11:04:11;;;;;;;;;;;14.10;73.80;;;;;;5095556;28;20389;-71
2023/10/28 11:06:37;;;;;;;;;;;14.20;73.80;;;;;;5095416;28;19924;-71
2023/10/28 11:09:04;;;;;;;;;;;14.20;73.80;;;;;;5113296;28;19966;-71
2023/10/28 11:11:30;;;;;;;;;;;14.20;73.80;;;;;;5113650;28;19972;-71
2023/10/28 11:13:56;;;;;;;;;;;14.20;73.90;;;;;;5095090;28;19921;-72
2023/10/28 11:16:23;;;;;;;;;;;14.20;73.80;;;;;;5113427;28;19953;-71
2023/10/28 11:18:49;;;;;;;;;;;14.20;73.80;;;;;;5129000;27;19972;-71
2023/10/28 11:21:15;;;;;;;;;;;14.20;73.80;;;;;;5113228;28;19919;-72
2023/10/28 11:23:40;;;;;;;;;;;14.20;73.80;;;;;;5095291;28;19989;-71
2023/10/28 11:26:06;;;;;;;;;;;14.20;73.80;;;;;;5095214;28;19971;-71
2023/10/28 11:28:32;;;;;;;;;;;14.20;73.80;;;;;;5113266;28;19924;-72
2023/10/28 11:30:59;;;;;;;;;;;14.20;73.90;;;;;;5113108;28;19927;-72
2023/10/28 11:33:26;;;;;;;;;;;14.20;73.90;;;;;;5094817;28;20439;-73
2023/10/28 11:35:52;;;;;;;;;;;14.20;73.80;;;;;;5113032;28;19919;-71
2023/10/28 11:38:17;;;;;;;;;;;14.20;73.90;;;;;;5094371;28;20019;-71
2023/10/28 11:40:43;;;;;;;;;;;14.20;73.80;;;;;;5094753;28;19926;-72
2023/10/28 11:43:09;;;;;;;;;;;14.20;73.80;;;;;;5094863;28;19942;-71
2023/10/28 11:45:35;;;;;;;;;;;14.20;73.90;;;;;;5113065;28;19962;-72
2023/10/28 11:48:00;;;;;;;;;;;14.20;73.80;;;;;;5094424;28;19963;-71
2023/10/28 11:50:28;;;;;;;;;;;14.20;73.80;;;;;;5094065;28;21274;-72
2023/10/28 11:52:53;;;;;;;;;;;14.20;73.80;;;;;;5094531;28;19968;-71
2023/10/28 11:55:19;;;;;;;;;;;14.20;73.80;;;;;;5094722;28;19926;-73
2023/10/28 11:57:45;;;;;;;;;;;14.30;73.90;;;;;;5112912;28;20391;-71
2023/10/28 12:00:11;;;;;;;;;;;14.20;73.80;;;;;;5094459;28;19968;-71
2023/10/28 12:02:37;;;;;;;;;;;14.30;73.90;;;;;;5112749;28;19920;-72
2023/10/28 12:05:03;;;;;;;;;;;14.30;73.90;;;;;;5094629;28;19926;-71
2023/10/28 12:07:28;;;;;;;;;;;14.30;73.90;;;;;;5094633;28;19920;-71
2023/10/28 12:09:54;;;;;;;;;;;14.30;73.90;;;;;;5094662;28;19920;-71
2023/10/28 12:12:22;;;;;;;;;;;14.30;73.90;;;;;;5094677;28;20014;-73
2023/10/28 12:14:48;;;;;;;;;;;14.30;73.90;;;;;;5094606;28;20002;-71
2023/10/28 12:17:13;;;;;;;;;;;14.30;73.90;;;;;;5094555;28;20433;-72
2023/10/28 12:19:40;;;;;;;;;;;14.20;73.80;;;;;;5094268;28;19919;-74
2023/10/28 12:22:05;;;;;;;;;;;14.30;73.90;;;;;;5094565;28;19924;-72
2023/10/28 12:24:33;;;;;;;;;;;14.30;73.90;;;;;;5112756;28;20355;-72
2023/10/28 12:26:58;;;;;;;;;;;14.30;73.90;;;;;;5094620;28;20294;-73
2023/10/28 12:29:24;;;;;;;;;;;14.30;73.90;;;;;;5094101;28;19931;-73
2023/10/28 12:31:51;;;;;;;;;;;14.30;73.90;;;;;;5094204;28;19927;-72
2023/10/28 12:34:16;;;;;;;;;;;14.30;73.90;;;;;;5094545;28;19919;-73
2023/10/28 12:36:43;;;;;;;;;;;14.30;73.90;;;;;;5128575;28;20061;-73
2023/10/28 12:39:10;;;;;;;;;;;14.30;73.90;;;;;;5112316;28;19941;-71
2023/10/28 12:41:35;;;;;;;;;;;14.30;73.90;;;;;;5093945;28;19930;-74
2023/10/28 12:44:01;;;;;;;;;;;14.30;73.90;;;;;;5128578;28;20006;-72
2023/10/28 12:46:26;;;;;;;;;;;14.30;73.90;;;;;;5094155;28;19920;-73
2023/10/28 12:48:52;;;;;;;;;;;14.40;73.90;;;;;;5093934;28;19923;-73
2023/10/28 12:51:20;;;;;;;;;;;14.40;73.90;;;;;;5113814;28;19920;-73
2023/10/28 12:53:45;;;;;;;;;;;14.30;73.90;;;;;;5097728;28;19924;-73
2023/10/28 12:56:12;;;;;;;;;;;14.30;73.90;;;;;;5098071;28;19926;-72
2023/10/28 12:58:38;;;;;;;;;;;14.40;74.00;;;;;;5116155;28;19924;-72
2023/10/28 13:01:04;;;;;;;;;;;14.30;73.90;;;;;;5097984;28;19930;-72
2023/10/28 13:03:30;;;;;;;;;;;14.30;73.90;;;;;;5097630;28;19923;-72
2023/10/28 13:05:55;;;;;;;;;;;14.30;73.90;;;;;;5097511;28;19972;-72
2023/10/28 13:08:21;;;;;;;;;;;14.30;73.90;;;;;;5097434;28;19927;-72
2023/10/28 13:10:47;;;;;;;;;;;14.40;74.00;;;;;;5097521;28;19920;-71
2023/10/28 13:13:14;;;;;;;;;;;14.40;74.00;;;;;;5131639;27;19927;-71
2023/10/28 13:15:41;;;;;;;;;;;14.40;74.00;;;;;;5131550;27;20393;-71
2023/10/28 13:18:06;;;;;;;;;;;14.40;74.70;;;;;;5097503;28;19920;-72
2023/10/28 13:20:33;;;;;;;;;;;14.40;74.00;;;;;;5097334;28;20076;-73
2023/10/28 13:23:00;;;;;;;;;;;14.40;74.00;;;;;;5097422;28;20389;-72
2023/10/28 13:25:26;;;;;;;;;;;14.40;74.00;;;;;;5097185;28;20363;-73
2023/10/28 13:27:51;;;;;;;;;;;14.40;74.00;;;;;;5097189;28;19930;-71
2023/10/28 13:30:17;;;;;;;;;;;14.40;74.00;;;;;;5097399;28;20011;-73
2023/10/28 13:32:44;;;;;;;;;;;14.40;74.00;;;;;;5097328;28;20359;-73
2023/10/28 13:35:11;;;;;;;;;;;14.40;74.10;;;;;;5097311;28;19920;-73
2023/10/28 13:37:38;;;;;;;;;;;14.40;74.00;;;;;;5097236;28;20355;-72
2023/10/28 13:40:04;;;;;;;;;;;14.40;74.00;;;;;;5115197;28;20542;-72
2023/10/28 13:42:29;;;;;;;;;;;14.40;74.00;;;;;;5097023;28;20007;-72
2023/10/28 13:44:58;;;;;;;;;;;14.40;74.10;;;;;;5115317;28;20443;-72
2023/10/28 13:47:24;;;;;;;;;;;14.40;74.80;;;;;;5114804;28;20294;-72
2023/10/28 13:49:49;;;;;;;;;;;14.40;74.00;;;;;;5115001;28;20006;-72
2023/10/28 13:52:15;;;;;;;;;;;14.40;74.00;;;;;;5114849;28;19923;-72
2023/10/28 13:54:40;;;;;;;;;;;14.40;74.10;;;;;;5096841;28;19920;-72
2023/10/28 13:57:06;;;;;;;;;;;14.40;74.10;;;;;;5096927;28;19927;-74
2023/10/28 13:59:31;;;;;;;;;;;14.40;74.10;;;;;;5096793;28;19920;-72
2023/10/28 14:01:58;;;;;;;;;;;14.40;74.10;;;;;;5096316;28;19926;-72
2023/10/28 14:04:24;;;;;;;;;;;14.40;74.10;;;;;;5096359;28;19970;-74
2023/10/28 14:06:50;;;;;;;;;;;14.40;74.10;;;;;;5096370;28;19979;-72
2023/10/28 14:09:16;;;;;;;;;;;14.40;74.10;;;;;;5096196;28;19927;-72